sensor_id;sensor_type;location;lat;lon;timestamp;temperature;humidity
44851;DHT22;30583;48.714;9.386;2023-03-31T00:00:44;11.20;74.10
44851;DHT22;30583;48.714;9.386;2023-03-31T00:03:12;11.00;74.60
44851;DHT22;30583;48.714;9.386;2023-03-31T00:05:38;10.90;74.60
44851;DHT22;30583;48.714;9.386;2023-03-31T00:08:04;11.00;74.70
44851;DHT22;30583;48.714;9.386;2023-03-31T00:10:31;11.20;74.10
44851;DHT22;30583;48.714;9.386;2023-03-31T00:13:01;11.10;74.70
44851;DHT22;30583;48.714;9.386;2023-03-31T00:15:28;11.20;74.10
44851;DHT22;30583;48.714;9.386;2023-03-31T00:17:53;11.20;74.50
44851;DHT22;30583;48.714;9.386;2023-03-31T00:20:19;10.90;75.20
44851;DHT22;30583;48.714;9.386;2023-03-31T00:22:45;10.70;75.80
44851;DHT22;30583;48.714;9.386;2023-03-31T00:25:14;10.90;75.40
44851;DHT22;30583;48.714;9.386;2023-03-31T00:27:41;10.70;75.60
44851;DHT22;30583;48.714;9.386;2023-03-31T00:30:08;10.70;75.60
44851;DHT22;30583;48.714;9.386;2023-03-31T00:32:35;11.00;74.60
44851;DHT22;30583;48.714;9.386;2023-03-31T00:35:00;11.00;74.60
44851;DHT22;30583;48.714;9.386;2023-03-31T00:37:27;11.00;74.50
44851;DHT22;30583;48.714;9.386;2023-03-31T00:39:54;11.00;74.40
44851;DHT22;30583;48.714;9.386;2023-03-31T00:42:21;10.90;75.00
44851;DHT22;30583;48.714;9.386;2023-03-31T00:47:52;10.70;75.30
44851;DHT22;30583;48.714;9.386;2023-03-31T00:50:25;10.70;75.60
44851;DHT22;30583;48.714;9.386;2023-03-31T00:52:59;11.00;74.90
44851;DHT22;30583;48.714;9.386;2023-03-31T00:55:31;10.80;75.00
44851;DHT22;30583;48.714;9.386;2023-03-31T00:57:58;10.80;74.80
44851;DHT22;30583;48.714;9.386;2023-03-31T01:00:26;11.00;74.50
44851;DHT22;30583;48.714;9.386;2023-03-31T01:02:56;11.00;74.40
44851;DHT22;30583;48.714;9.386;2023-03-31T01:05:30;11.00;74.80
44851;DHT22;30583;48.714;9.386;2023-03-31T01:07:58;10.90;75.30
44851;DHT22;30583;48.714;9.386;2023-03-31T01:10:25;10.90;75.40
44851;DHT22;30583;48.714;9.386;2023-03-31T01:12:53;10.60;75.90
44851;DHT22;30583;48.714;9.386;2023-03-31T01:15:19;10.70;75.90
44851;DHT22;30583;48.714;9.386;2023-03-31T01:17:45;10.90;75.60
44851;DHT22;30583;48.714;9.386;2023-03-31T01:43:29;10.70;76.10
44851;DHT22;30583;48.714;9.386;2023-03-31T01:45:59;10.80;76.20
44851;DHT22;30583;48.714;9.386;2023-03-31T01:48:34;10.70;75.90
44851;DHT22;30583;48.714;9.386;2023-03-31T01:51:14;10.80;75.80
44851;DHT22;30583;48.714;9.386;2023-03-31T01:59:13;10.70;76.20
44851;DHT22;30583;48.714;9.386;2023-03-31T02:01:50;10.80;76.20
44851;DHT22;30583;48.714;9.386;2023-03-31T02:04:23;10.60;75.80
44851;DHT22;30583;48.714;9.386;2023-03-31T02:07:04;10.70;75.80
44851;DHT22;30583;48.714;9.386;2023-03-31T02:09:38;10.70;75.90
44851;DHT22;30583;48.714;9.386;2023-03-31T02:12:07;10.90;75.80
44851;DHT22;30583;48.714;9.386;2023-03-31T02:14:37;10.80;76.20
44851;DHT22;30583;48.714;9.386;2023-03-31T02:17:04;10.90;76.30
44851;DHT22;30583;48.714;9.386;2023-03-31T02:19:36;10.90;76.70
44851;DHT22;30583;48.714;9.386;2023-03-31T02:22:06;11.00;77.00
44851;DHT22;30583;48.714;9.386;2023-03-31T02:24:33;10.80;77.00
44851;DHT22;30583;48.714;9.386;2023-03-31T02:27:15;10.90;77.10
44851;DHT22;30583;48.714;9.386;2023-03-31T02:29:42;10.90;77.50
44851;DHT22;30583;48.714;9.386;2023-03-31T02:32:15;10.80;77.70
44851;DHT22;30583;48.714;9.386;2023-03-31T02:34:44;10.80;77.90
44851;DHT22;30583;48.714;9.386;2023-03-31T02:37:11;10.90;76.90
44851;DHT22;30583;48.714;9.386;2023-03-31T02:39:38;11.20;73.20
44851;DHT22;30583;48.714;9.386;2023-03-31T02:42:04;11.60;71.50
44851;DHT22;30583;48.714;9.386;2023-03-31T02:44:34;11.70;71.40
44851;DHT22;30583;48.714;9.386;2023-03-31T02:47:08;11.90;70.40
44851;DHT22;30583;48.714;9.386;2023-03-31T02:49:35;11.90;70.70
44851;DHT22;30583;48.714;9.386;2023-03-31T02:52:27;11.90;70.80
44851;DHT22;30583;48.714;9.386;2023-03-31T03:06:00;11.90;71.50
44851;DHT22;30583;48.714;9.386;2023-03-31T03:11:51;11.70;72.40
44851;DHT22;30583;48.714;9.386;2023-03-31T03:17:08;11.70;72.80
44851;DHT22;30583;48.714;9.386;2023-03-31T03:19:35;11.70;72.80
44851;DHT22;30583;48.714;9.386;2023-03-31T03:22:01;11.70;73.50
44851;DHT22;30583;48.714;9.386;2023-03-31T03:24:26;11.60;73.50
44851;DHT22;30583;48.714;9.386;2023-03-31T03:26:54;11.60;73.80
44851;DHT22;30583;48.714;9.386;2023-03-31T03:29:19;11.50;74.40
44851;DHT22;30583;48.714;9.386;2023-03-31T03:31:45;11.30;75.40
44851;DHT22;30583;48.714;9.386;2023-03-31T03:34:10;11.20;75.90
44851;DHT22;30583;48.714;9.386;2023-03-31T03:36:37;11.30;75.70
44851;DHT22;30583;48.714;9.386;2023-03-31T03:39:04;11.30;76.00
44851;DHT22;30583;48.714;9.386;2023-03-31T03:41:31;11.20;75.70
44851;DHT22;30583;48.714;9.386;2023-03-31T03:43:58;11.20;75.80
44851;DHT22;30583;48.714;9.386;2023-03-31T03:46:24;11.40;75.60
44851;DHT22;30583;48.714;9.386;2023-03-31T03:48:49;11.60;75.50
44851;DHT22;30583;48.714;9.386;2023-03-31T03:51:15;11.40;76.00
44851;DHT22;30583;48.714;9.386;2023-03-31T03:53:41;11.30;76.60
44851;DHT22;30583;48.714;9.386;2023-03-31T03:56:07;11.20;77.00
44851;DHT22;30583;48.714;9.386;2023-03-31T03:58:32;11.20;77.10
44851;DHT22;30583;48.714;9.386;2023-03-31T04:00:58;11.20;77.50
44851;DHT22;30583;48.714;9.386;2023-03-31T04:03:23;11.20;77.40
44851;DHT22;30583;48.714;9.386;2023-03-31T04:05:49;11.30;76.60
44851;DHT22;30583;48.714;9.386;2023-03-31T04:08:15;11.20;77.10
44851;DHT22;30583;48.714;9.386;2023-03-31T04:10:44;11.20;77.00
44851;DHT22;30583;48.714;9.386;2023-03-31T04:13:11;11.30;76.70
44851;DHT22;30583;48.714;9.386;2023-03-31T04:15:36;11.20;76.70
44851;DHT22;30583;48.714;9.386;2023-03-31T04:18:02;11.00;77.70
44851;DHT22;30583;48.714;9.386;2023-03-31T04:20:28;11.10;77.60
44851;DHT22;30583;48.714;9.386;2023-03-31T04:22:54;11.10;77.00
44851;DHT22;30583;48.714;9.386;2023-03-31T04:25:20;11.10;76.90
44851;DHT22;30583;48.714;9.386;2023-03-31T04:27:50;10.90;77.70
44851;DHT22;30583;48.714;9.386;2023-03-31T04:30:24;10.90;77.30
44851;DHT22;30583;48.714;9.386;2023-03-31T04:32:59;10.90;77.60
44851;DHT22;30583;48.714;9.386;2023-03-31T04:35:27;10.90;77.50
44851;DHT22;30583;48.714;9.386;2023-03-31T04:38:12;10.90;77.20
44851;DHT22;30583;48.714;9.386;2023-03-31T04:40:38;11.30;76.00
44851;DHT22;30583;48.714;9.386;2023-03-31T04:43:05;11.40;75.40
44851;DHT22;30583;48.714;9.386;2023-03-31T04:45:31;11.50;75.40
44851;DHT22;30583;48.714;9.386;2023-03-31T04:47:56;11.40;75.20
44851;DHT22;30583;48.714;9.386;2023-03-31T04:50:22;11.40;75.60
44851;DHT22;30583;48.714;9.386;2023-03-31T04:52:47;11.10;75.80
44851;DHT22;30583;48.714;9.386;2023-03-31T04:55:13;11.10;76.40
44851;DHT22;30583;48.714;9.386;2023-03-31T04:57:39;11.20;76.30
44851;DHT22;30583;48.714;9.386;2023-03-31T05:00:05;11.10;76.90
44851;DHT22;30583;48.714;9.386;2023-03-31T05:02:35;11.10;77.50
44851;DHT22;30583;48.714;9.386;2023-03-31T05:05:00;11.20;77.30
44851;DHT22;30583;48.714;9.386;2023-03-31T05:07:26;11.20;77.50
44851;DHT22;30583;48.714;9.386;2023-03-31T05:09:51;11.00;76.70
44851;DHT22;30583;48.714;9.386;2023-03-31T05:12:17;11.00;76.90
44851;DHT22;30583;48.714;9.386;2023-03-31T05:14:43;11.10;77.20
44851;DHT22;30583;48.714;9.386;2023-03-31T05:17:08;11.00;77.20
44851;DHT22;30583;48.714;9.386;2023-03-31T05:19:34;11.10;77.10
44851;DHT22;30583;48.714;9.386;2023-03-31T05:21:59;11.00;77.50
44851;DHT22;30583;48.714;9.386;2023-03-31T05:24:25;10.90;77.80
44851;DHT22;30583;48.714;9.386;2023-03-31T05:26:52;11.00;77.20
44851;DHT22;30583;48.714;9.386;2023-03-31T05:29:18;11.10;77.50
44851;DHT22;30583;48.714;9.386;2023-03-31T05:31:44;11.20;77.60
44851;DHT22;30583;48.714;9.386;2023-03-31T05:34:12;11.30;77.80
44851;DHT22;30583;48.714;9.386;2023-03-31T05:36:37;11.30;78.10
44851;DHT22;30583;48.714;9.386;2023-03-31T05:39:06;11.10;79.80
44851;DHT22;30583;48.714;9.386;2023-03-31T05:41:33;11.00;80.30
44851;DHT22;30583;48.714;9.386;2023-03-31T05:43:58;11.20;80.10
44851;DHT22;30583;48.714;9.386;2023-03-31T05:46:24;11.10;81.20
44851;DHT22;30583;48.714;9.386;2023-03-31T05:48:51;10.90;81.70
44851;DHT22;30583;48.714;9.386;2023-03-31T05:51:16;11.00;81.90
44851;DHT22;30583;48.714;9.386;2023-03-31T05:53:42;11.10;81.70
44851;DHT22;30583;48.714;9.386;2023-03-31T05:56:08;11.00;82.00
44851;DHT22;30583;48.714;9.386;2023-03-31T05:58:35;10.70;82.60
44851;DHT22;30583;48.714;9.386;2023-03-31T06:01:09;10.60;83.60
44851;DHT22;30583;48.714;9.386;2023-03-31T06:03:36;10.70;83.40
44851;DHT22;30583;48.714;9.386;2023-03-31T06:06:03;10.60;83.70
44851;DHT22;30583;48.714;9.386;2023-03-31T06:08:30;10.70;83.40
44851;DHT22;30583;48.714;9.386;2023-03-31T06:10:56;10.80;83.60
44851;DHT22;30583;48.714;9.386;2023-03-31T06:13:22;10.50;83.80
44851;DHT22;30583;48.714;9.386;2023-03-31T06:15:58;10.70;83.50
44851;DHT22;30583;48.714;9.386;2023-03-31T06:18:29;10.70;83.50
44851;DHT22;30583;48.714;9.386;2023-03-31T06:20:56;11.00;83.20
44851;DHT22;30583;48.714;9.386;2023-03-31T06:23:22;11.40;82.10
44851;DHT22;30583;48.714;9.386;2023-03-31T06:25:48;11.60;81.20
44851;DHT22;30583;48.714;9.386;2023-03-31T06:28:14;11.40;81.10
44851;DHT22;30583;48.714;9.386;2023-03-31T06:30:40;11.20;82.10
44851;DHT22;30583;48.714;9.386;2023-03-31T06:33:06;11.10;83.00
44851;DHT22;30583;48.714;9.386;2023-03-31T06:35:31;11.20;83.00
44851;DHT22;30583;48.714;9.386;2023-03-31T06:37:57;11.20;83.40
44851;DHT22;30583;48.714;9.386;2023-03-31T06:40:23;11.10;83.80
44851;DHT22;30583;48.714;9.386;2023-03-31T06:42:48;11.20;83.70
44851;DHT22;30583;48.714;9.386;2023-03-31T06:45:14;11.20;83.40
44851;DHT22;30583;48.714;9.386;2023-03-31T06:47:40;11.00;84.30
44851;DHT22;30583;48.714;9.386;2023-03-31T06:50:08;11.10;84.00
44851;DHT22;30583;48.714;9.386;2023-03-31T06:52:34;11.10;84.50
44851;DHT22;30583;48.714;9.386;2023-03-31T06:55:00;11.20;84.00
44851;DHT22;30583;48.714;9.386;2023-03-31T06:57:27;11.20;84.40
44851;DHT22;30583;48.714;9.386;2023-03-31T06:59:53;11.10;84.40
44851;DHT22;30583;48.714;9.386;2023-03-31T07:02:18;11.10;85.10
44851;DHT22;30583;48.714;9.386;2023-03-31T07:04:44;11.10;85.20
44851;DHT22;30583;48.714;9.386;2023-03-31T07:07:10;11.10;85.40
44851;DHT22;30583;48.714;9.386;2023-03-31T07:09:35;10.90;85.60
44851;DHT22;30583;48.714;9.386;2023-03-31T07:12:02;10.80;85.80
44851;DHT22;30583;48.714;9.386;2023-03-31T07:14:30;10.80;86.00
44851;DHT22;30583;48.714;9.386;2023-03-31T07:16:55;10.80;86.10
44851;DHT22;30583;48.714;9.386;2023-03-31T07:19:21;11.00;85.90
44851;DHT22;30583;48.714;9.386;2023-03-31T07:21:47;10.90;85.50
44851;DHT22;30583;48.714;9.386;2023-03-31T07:24:13;11.10;84.60
44851;DHT22;30583;48.714;9.386;2023-03-31T07:26:38;11.30;83.70
44851;DHT22;30583;48.714;9.386;2023-03-31T07:29:04;11.30;83.10
44851;DHT22;30583;48.714;9.386;2023-03-31T07:31:30;11.10;81.30
44851;DHT22;30583;48.714;9.386;2023-03-31T07:33:55;11.20;80.70
44851;DHT22;30583;48.714;9.386;2023-03-31T07:36:21;11.50;79.90
44851;DHT22;30583;48.714;9.386;2023-03-31T07:38:47;11.40;79.80
44851;DHT22;30583;48.714;9.386;2023-03-31T07:41:18;11.40;78.80
44851;DHT22;30583;48.714;9.386;2023-03-31T07:43:45;11.60;78.50
44851;DHT22;30583;48.714;9.386;2023-03-31T07:46:22;11.50;77.70
44851;DHT22;30583;48.714;9.386;2023-03-31T07:48:48;11.60;76.80
44851;DHT22;30583;48.714;9.386;2023-03-31T07:51:16;11.40;75.00
44851;DHT22;30583;48.714;9.386;2023-03-31T07:53:42;11.70;74.80
44851;DHT22;30583;48.714;9.386;2023-03-31T07:56:08;11.50;75.60
44851;DHT22;30583;48.714;9.386;2023-03-31T07:58:33;11.70;74.50
44851;DHT22;30583;48.714;9.386;2023-03-31T08:00:59;11.70;75.10
44851;DHT22;30583;48.714;9.386;2023-03-31T08:03:25;11.60;75.60
44851;DHT22;30583;48.714;9.386;2023-03-31T08:05:52;11.60;76.30
44851;DHT22;30583;48.714;9.386;2023-03-31T08:08:17;11.60;76.10
44851;DHT22;30583;48.714;9.386;2023-03-31T08:10:43;11.80;75.40
44851;DHT22;30583;48.714;9.386;2023-03-31T08:13:09;11.60;76.80
44851;DHT22;30583;48.714;9.386;2023-03-31T08:15:34;11.90;77.20
44851;DHT22;30583;48.714;9.386;2023-03-31T08:18:00;11.70;78.00
44851;DHT22;30583;48.714;9.386;2023-03-31T08:20:27;11.70;78.20
44851;DHT22;30583;48.714;9.386;2023-03-31T08:22:52;11.70;78.90
44851;DHT22;30583;48.714;9.386;2023-03-31T08:25:18;11.70;77.90
44851;DHT22;30583;48.714;9.386;2023-03-31T08:27:44;12.00;78.40
44851;DHT22;30583;48.714;9.386;2023-03-31T08:30:13;12.00;78.00
44851;DHT22;30583;48.714;9.386;2023-03-31T08:32:39;12.50;77.10
44851;DHT22;30583;48.714;9.386;2023-03-31T08:35:05;12.70;76.70
44851;DHT22;30583;48.714;9.386;2023-03-31T08:37:31;12.80;76.50
44851;DHT22;30583;48.714;9.386;2023-03-31T08:39:57;12.90;75.90
44851;DHT22;30583;48.714;9.386;2023-03-31T08:44:56;13.20;74.60
44851;DHT22;30583;48.714;9.386;2023-03-31T08:47:23;13.10;74.60
44851;DHT22;30583;48.714;9.386;2023-03-31T08:49:55;13.20;74.20
44851;DHT22;30583;48.714;9.386;2023-03-31T08:52:28;13.40;73.30
44851;DHT22;30583;48.714;9.386;2023-03-31T08:54:57;13.40;72.40
44851;DHT22;30583;48.714;9.386;2023-03-31T08:57:50;13.70;72.40
44851;DHT22;30583;48.714;9.386;2023-03-31T09:00:20;13.70;71.00
44851;DHT22;30583;48.714;9.386;2023-03-31T09:05:39;15.90;62.70
44851;DHT22;30583;48.714;9.386;2023-03-31T09:08:12;14.10;69.30
44851;DHT22;30583;48.714;9.386;2023-03-31T09:10:52;14.30;68.50
44851;DHT22;30583;48.714;9.386;2023-03-31T09:16:29;14.50;68.00
44851;DHT22;30583;48.714;9.386;2023-03-31T09:19:00;14.80;67.70
44851;DHT22;30583;48.714;9.386;2023-03-31T09:21:34;15.10;66.00
44851;DHT22;30583;48.714;9.386;2023-03-31T09:24:17;15.20;64.10
44851;DHT22;30583;48.714;9.386;2023-03-31T09:27:04;15.10;64.90
44851;DHT22;30583;48.714;9.386;2023-03-31T09:29:44;15.10;63.10
44851;DHT22;30583;48.714;9.386;2023-03-31T09:32:17;15.10;62.90
44851;DHT22;30583;48.714;9.386;2023-03-31T09:34:45;15.40;63.00
44851;DHT22;30583;48.714;9.386;2023-03-31T09:37:11;15.70;61.30
44851;DHT22;30583;48.714;9.386;2023-03-31T09:39:38;15.60;60.00
44851;DHT22;30583;48.714;9.386;2023-03-31T09:42:04;15.30;57.90
44851;DHT22;30583;48.714;9.386;2023-03-31T09:44:42;15.70;57.70
44851;DHT22;30583;48.714;9.386;2023-03-31T09:47:38;15.20;58.00
44851;DHT22;30583;48.714;9.386;2023-03-31T09:50:07;15.00;58.30
44851;DHT22;30583;48.714;9.386;2023-03-31T09:52:42;14.90;58.90
44851;DHT22;30583;48.714;9.386;2023-03-31T09:55:25;14.80;58.50
44851;DHT22;30583;48.714;9.386;2023-03-31T09:57:53;15.00;59.20
44851;DHT22;30583;48.714;9.386;2023-03-31T10:00:21;15.00;60.20
44851;DHT22;30583;48.714;9.386;2023-03-31T10:02:51;14.90;59.60
44851;DHT22;30583;48.714;9.386;2023-03-31T10:10:47;15.10;58.00
44851;DHT22;30583;48.714;9.386;2023-03-31T10:13:16;15.20;57.30
44851;DHT22;30583;48.714;9.386;2023-03-31T10:15:43;15.60;56.80
44851;DHT22;30583;48.714;9.386;2023-03-31T10:18:17;15.20;55.10
44851;DHT22;30583;48.714;9.386;2023-03-31T10:20:51;15.20;52.50
44851;DHT22;30583;48.714;9.386;2023-03-31T10:23:28;15.70;53.50
44851;DHT22;30583;48.714;9.386;2023-03-31T10:25:55;16.10;52.20
44851;DHT22;30583;48.714;9.386;2023-03-31T10:28:21;16.60;50.60
44851;DHT22;30583;48.714;9.386;2023-03-31T10:30:50;16.70;51.20
44851;DHT22;30583;48.714;9.386;2023-03-31T10:33:20;17.20;49.80
44851;DHT22;30583;48.714;9.386;2023-03-31T10:35:48;17.00;47.20
44851;DHT22;30583;48.714;9.386;2023-03-31T10:38:30;17.10;48.30
44851;DHT22;30583;48.714;9.386;2023-03-31T10:40:59;16.80;47.50
44851;DHT22;30583;48.714;9.386;2023-03-31T10:43:51;17.10;46.90
44851;DHT22;30583;48.714;9.386;2023-03-31T10:46:14;17.50;46.20
44851;DHT22;30583;48.714;9.386;2023-03-31T10:48:41;17.40;46.40
44851;DHT22;30583;48.714;9.386;2023-03-31T10:51:25;17.10;47.40
44851;DHT22;30583;48.714;9.386;2023-03-31T10:53:53;17.00;46.80
44851;DHT22;30583;48.714;9.386;2023-03-31T10:56:42;17.20;46.80
44851;DHT22;30583;48.714;9.386;2023-03-31T11:05:01;16.40;47.20
44851;DHT22;30583;48.714;9.386;2023-03-31T11:07:57;16.90;46.80
44851;DHT22;30583;48.714;9.386;2023-03-31T11:13:25;17.00;46.20
44851;DHT22;30583;48.714;9.386;2023-03-31T11:18:39;16.50;47.00
44851;DHT22;30583;48.714;9.386;2023-03-31T11:43:04;11.30;72.70
44851;DHT22;30583;48.714;9.386;2023-03-31T11:45:41;10.80;74.10
44851;DHT22;30583;48.714;9.386;2023-03-31T11:48:34;10.60;75.20
44851;DHT22;30583;48.714;9.386;2023-03-31T11:51:05;10.70;75.20
44851;DHT22;30583;48.714;9.386;2023-03-31T11:53:34;11.20;73.30
44851;DHT22;30583;48.714;9.386;2023-03-31T11:56:01;10.70;72.00
44851;DHT22;30583;48.714;9.386;2023-03-31T11:58:46;10.80;72.80
44851;DHT22;30583;48.714;9.386;2023-03-31T12:01:19;11.20;72.10
44851;DHT22;30583;48.714;9.386;2023-03-31T12:03:53;11.10;70.60
44851;DHT22;30583;48.714;9.386;2023-03-31T12:06:24;11.10;71.30
44851;DHT22;30583;48.714;9.386;2023-03-31T12:14:33;12.20;68.50
44851;DHT22;30583;48.714;9.386;2023-03-31T12:17:14;12.00;68.40
44851;DHT22;30583;48.714;9.386;2023-03-31T12:19:59;12.40;69.40
44851;DHT22;30583;48.714;9.386;2023-03-31T12:22:52;13.50;66.40
44851;DHT22;30583;48.714;9.386;2023-03-31T12:25:21;13.20;65.30
44851;DHT22;30583;48.714;9.386;2023-03-31T12:27:52;13.20;66.20
44851;DHT22;30583;48.714;9.386;2023-03-31T12:30:37;13.60;64.10
44851;DHT22;30583;48.714;9.386;2023-03-31T12:33:26;13.70;62.60
44851;DHT22;30583;48.714;9.386;2023-03-31T12:36:03;13.50;62.20
44851;DHT22;30583;48.714;9.386;2023-03-31T12:38:49;14.40;62.00
44851;DHT22;30583;48.714;9.386;2023-03-31T12:41:22;15.30;60.70
44851;DHT22;30583;48.714;9.386;2023-03-31T12:46:43;14.50;57.80
44851;DHT22;30583;48.714;9.386;2023-03-31T12:52:13;14.90;59.40
44851;DHT22;30583;48.714;9.386;2023-03-31T12:57:25;15.60;55.90
44851;DHT22;30583;48.714;9.386;2023-03-31T13:02:41;14.80;53.60
44851;DHT22;30583;48.714;9.386;2023-03-31T13:08:01;15.30;56.90
44851;DHT22;30583;48.714;9.386;2023-03-31T13:10:32;15.50;54.80
44851;DHT22;30583;48.714;9.386;2023-03-31T13:13:11;16.60;53.60
44851;DHT22;30583;48.714;9.386;2023-03-31T13:15:38;15.60;54.00
44851;DHT22;30583;48.714;9.386;2023-03-31T13:18:05;15.20;55.30
44851;DHT22;30583;48.714;9.386;2023-03-31T13:23:21;15.50;55.70
44851;DHT22;30583;48.714;9.386;2023-03-31T13:25:54;15.00;56.10
44851;DHT22;30583;48.714;9.386;2023-03-31T13:28:37;15.20;55.10
44851;DHT22;30583;48.714;9.386;2023-03-31T13:31:05;14.60;56.30
44851;DHT22;30583;48.714;9.386;2023-03-31T13:33:44;14.30;56.60
44851;DHT22;30583;48.714;9.386;2023-03-31T13:44:47;14.20;59.70
44851;DHT22;30583;48.714;9.386;2023-03-31T13:50:36;13.60;64.50
44851;DHT22;30583;48.714;9.386;2023-03-31T13:58:40;12.30;72.10
44851;DHT22;30583;48.714;9.386;2023-03-31T14:04:07;11.40;73.50
44851;DHT22;30583;48.714;9.386;2023-03-31T14:06:58;11.20;72.40
44851;DHT22;30583;48.714;9.386;2023-03-31T14:09:31;11.30;73.10
44851;DHT22;30583;48.714;9.386;2023-03-31T14:12:36;11.20;71.70
44851;DHT22;30583;48.714;9.386;2023-03-31T14:15:03;11.40;71.30
44851;DHT22;30583;48.714;9.386;2023-03-31T14:17:37;11.50;71.40
44851;DHT22;30583;48.714;9.386;2023-03-31T14:28:39;12.70;66.00
44851;DHT22;30583;48.714;9.386;2023-03-31T14:31:25;13.70;65.30
44851;DHT22;30583;48.714;9.386;2023-03-31T14:34:37;14.30;64.30
44851;DHT22;30583;48.714;9.386;2023-03-31T14:39:13;13.90;62.40
44851;DHT22;30583;48.714;9.386;2023-03-31T14:41:40;13.40;63.70
44851;DHT22;30583;48.714;9.386;2023-03-31T14:44:13;12.80;65.60
44851;DHT22;30583;48.714;9.386;2023-03-31T14:46:39;13.20;65.10
44851;DHT22;30583;48.714;9.386;2023-03-31T14:49:24;13.40;64.40
44851;DHT22;30583;48.714;9.386;2023-03-31T14:51:52;14.10;64.00
44851;DHT22;30583;48.714;9.386;2023-03-31T14:54:19;14.80;62.60
44851;DHT22;30583;48.714;9.386;2023-03-31T14:56:50;15.90;59.40
44851;DHT22;30583;48.714;9.386;2023-03-31T14:59:20;16.40;58.80
44851;DHT22;30583;48.714;9.386;2023-03-31T15:01:48;15.40;59.80
44851;DHT22;30583;48.714;9.386;2023-03-31T15:04:18;14.90;61.30
44851;DHT22;30583;48.714;9.386;2023-03-31T15:06:45;15.60;60.70
44851;DHT22;30583;48.714;9.386;2023-03-31T15:09:22;15.50;59.10
44851;DHT22;30583;48.714;9.386;2023-03-31T15:11:54;15.20;59.60
44851;DHT22;30583;48.714;9.386;2023-03-31T15:14:21;15.20;60.40
44851;DHT22;30583;48.714;9.386;2023-03-31T15:16:49;14.80;62.20
44851;DHT22;30583;48.714;9.386;2023-03-31T15:19:20;14.70;60.20
44851;DHT22;30583;48.714;9.386;2023-03-31T15:22:13;14.90;61.20
44851;DHT22;30583;48.714;9.386;2023-03-31T15:24:40;15.00;59.10
44851;DHT22;30583;48.714;9.386;2023-03-31T15:27:18;15.80;58.20
44851;DHT22;30583;48.714;9.386;2023-03-31T15:29:54;15.30;58.40
44851;DHT22;30583;48.714;9.386;2023-03-31T15:32:37;14.60;59.30
44851;DHT22;30583;48.714;9.386;2023-03-31T15:35:03;14.20;59.80
44851;DHT22;30583;48.714;9.386;2023-03-31T15:37:39;14.00;61.90
44851;DHT22;30583;48.714;9.386;2023-03-31T15:40:31;14.10;61.50
44851;DHT22;30583;48.714;9.386;2023-03-31T15:45:50;13.70;61.80
44851;DHT22;30583;48.714;9.386;2023-03-31T15:48:34;13.60;62.00
44851;DHT22;30583;48.714;9.386;2023-03-31T15:51:05;13.40;63.00
44851;DHT22;30583;48.714;9.386;2023-03-31T15:53:51;13.30;62.20
44851;DHT22;30583;48.714;9.386;2023-03-31T15:56:29;13.50;62.40
44851;DHT22;30583;48.714;9.386;2023-03-31T15:59:00;13.20;63.40
44851;DHT22;30583;48.714;9.386;2023-03-31T16:01:30;13.20;63.40
44851;DHT22;30583;48.714;9.386;2023-03-31T16:03:57;13.10;63.40
44851;DHT22;30583;48.714;9.386;2023-03-31T16:09:00;13.30;63.20
44851;DHT22;30583;48.714;9.386;2023-03-31T16:14:33;13.00;64.30
44851;DHT22;30583;48.714;9.386;2023-03-31T16:17:05;12.90;64.30
44851;DHT22;30583;48.714;9.386;2023-03-31T16:19:40;12.90;64.10
44851;DHT22;30583;48.714;9.386;2023-03-31T16:22:12;12.80;65.10
44851;DHT22;30583;48.714;9.386;2023-03-31T16:24:40;12.70;65.30
44851;DHT22;30583;48.714;9.386;2023-03-31T16:27:06;12.40;65.80
44851;DHT22;30583;48.714;9.386;2023-03-31T16:29:34;12.40;66.20
44851;DHT22;30583;48.714;9.386;2023-03-31T16:32:15;12.40;66.00
44851;DHT22;30583;48.714;9.386;2023-03-31T16:37:20;12.70;65.00
44851;DHT22;30583;48.714;9.386;2023-03-31T16:39:46;12.70;65.20
44851;DHT22;30583;48.714;9.386;2023-03-31T16:42:11;12.50;65.20
44851;DHT22;30583;48.714;9.386;2023-03-31T16:44:37;12.50;65.80
44851;DHT22;30583;48.714;9.386;2023-03-31T16:47:02;12.50;65.50
44851;DHT22;30583;48.714;9.386;2023-03-31T16:49:28;12.40;64.80
44851;DHT22;30583;48.714;9.386;2023-03-31T16:51:54;12.60;64.50
44851;DHT22;30583;48.714;9.386;2023-03-31T16:54:19;12.30;65.10
44851;DHT22;30583;48.714;9.386;2023-03-31T16:56:45;12.20;65.60
44851;DHT22;30583;48.714;9.386;2023-03-31T16:59:12;12.20;66.00
44851;DHT22;30583;48.714;9.386;2023-03-31T17:01:38;12.30;67.20
44851;DHT22;30583;48.714;9.386;2023-03-31T17:04:03;12.20;67.70
44851;DHT22;30583;48.714;9.386;2023-03-31T17:06:29;12.10;68.50
44851;DHT22;30583;48.714;9.386;2023-03-31T17:08:55;11.90;69.30
44851;DHT22;30583;48.714;9.386;2023-03-31T17:11:20;12.00;69.20
44851;DHT22;30583;48.714;9.386;2023-03-31T17:13:47;11.90;68.60
44851;DHT22;30583;48.714;9.386;2023-03-31T17:16:13;12.00;68.30
44851;DHT22;30583;48.714;9.386;2023-03-31T17:18:38;11.70;68.70
44851;DHT22;30583;48.714;9.386;2023-03-31T17:21:06;11.70;68.10
44851;DHT22;30583;48.714;9.386;2023-03-31T17:23:33;11.90;67.70
44851;DHT22;30583;48.714;9.386;2023-03-31T17:25:59;11.80;67.80
44851;DHT22;30583;48.714;9.386;2023-03-31T17:28:24;11.40;69.10
44851;DHT22;30583;48.714;9.386;2023-03-31T17:30:50;11.50;68.90
44851;DHT22;30583;48.714;9.386;2023-03-31T17:33:16;11.60;67.80
44851;DHT22;30583;48.714;9.386;2023-03-31T17:35:42;11.40;69.00
44851;DHT22;30583;48.714;9.386;2023-03-31T17:38:09;11.50;68.10
44851;DHT22;30583;48.714;9.386;2023-03-31T17:40:37;11.40;68.70
44851;DHT22;30583;48.714;9.386;2023-03-31T17:43:03;11.60;67.90
44851;DHT22;30583;48.714;9.386;2023-03-31T17:45:28;11.70;67.50
44851;DHT22;30583;48.714;9.386;2023-03-31T17:47:55;11.80;67.20
44851;DHT22;30583;48.714;9.386;2023-03-31T17:50:21;11.80;67.40
44851;DHT22;30583;48.714;9.386;2023-03-31T17:52:47;11.70;67.80
44851;DHT22;30583;48.714;9.386;2023-03-31T17:55:12;11.50;68.30
44851;DHT22;30583;48.714;9.386;2023-03-31T17:57:39;11.60;68.40
44851;DHT22;30583;48.714;9.386;2023-03-31T18:00:05;11.90;68.00
44851;DHT22;30583;48.714;9.386;2023-03-31T18:02:35;11.90;68.00
44851;DHT22;30583;48.714;9.386;2023-03-31T18:05:02;12.00;68.00
44851;DHT22;30583;48.714;9.386;2023-03-31T18:07:27;11.80;67.70
44851;DHT22;30583;48.714;9.386;2023-03-31T18:09:53;11.50;68.60
44851;DHT22;30583;48.714;9.386;2023-03-31T18:12:18;11.40;69.30
44851;DHT22;30583;48.714;9.386;2023-03-31T18:14:44;11.40;69.60
44851;DHT22;30583;48.714;9.386;2023-03-31T18:17:10;11.40;69.50
44851;DHT22;30583;48.714;9.386;2023-03-31T18:19:39;11.20;70.40
44851;DHT22;30583;48.714;9.386;2023-03-31T18:22:06;11.40;70.30
44851;DHT22;30583;48.714;9.386;2023-03-31T18:24:31;11.70;69.40
44851;DHT22;30583;48.714;9.386;2023-03-31T18:26:57;11.70;68.90